createdAt,value
2018-11-26T00:04:01.717Z,9.1
2018-11-26T00:09:04.089Z,9.6
2018-11-26T00:14:06.366Z,12.8
2018-11-26T00:19:09.752Z,16.799999
2018-11-26T00:24:10.897Z,14.7
2018-11-26T00:29:13.260Z,12.6
2018-11-26T00:34:15.479Z,14.1
2018-11-26T00:39:17.706Z,11.8
2018-11-26T00:44:20.120Z,10.9
2018-11-26T00:49:22.433Z,16.299999
2018-11-26T00:54:24.615Z,17.6
2018-11-26T00:59:26.995Z,18.799999
2018-11-26T01:04:29.277Z,14.7
2018-11-26T01:09:31.600Z,17.1
2018-11-26T01:14:33.780Z,12.1
2018-11-26T01:19:36.106Z,15
2018-11-26T01:24:38.452Z,13.2
2018-11-26T01:29:40.631Z,16.9
2018-11-26T01:34:42.936Z,11.7
2018-11-26T01:39:45.307Z,16.4
2018-11-26T01:44:47.533Z,14.4
2018-11-26T01:49:49.903Z,12.7
2018-11-26T01:54:52.193Z,15.8
2018-11-26T01:59:54.521Z,12
2018-11-26T02:04:56.903Z,15.1
2018-11-26T02:09:59.014Z,11.6
2018-11-26T02:15:01.290Z,20.4
2018-11-26T02:20:03.689Z,16.9
2018-11-26T02:25:06.077Z,18.799999
2018-11-26T02:30:08.213Z,13.4
2018-11-26T02:35:10.593Z,17.1
2018-11-26T02:40:12.889Z,18
2018-11-26T02:45:15.038Z,12.2
2018-11-26T02:50:17.338Z,14.8
2018-11-26T02:55:19.775Z,12.1
2018-11-26T03:00:21.964Z,16.799999
2018-11-26T03:05:24.416Z,15.9
2018-11-26T03:10:26.625Z,15.4
2018-11-26T03:15:28.940Z,17.5
2018-11-26T03:20:31.218Z,20.700001
2018-11-26T03:25:34.692Z,19.4
2018-11-26T03:30:35.789Z,16.5
2018-11-26T03:35:39.098Z,17.6
2018-11-26T03:40:40.436Z,18.700001
2018-11-26T03:45:42.637Z,13.6
2018-11-26T03:50:44.883Z,14.9
2018-11-26T03:55:47.212Z,16.299999
2018-11-26T04:00:49.589Z,17.200001
2018-11-26T04:05:51.762Z,18
2018-11-26T04:10:54.057Z,16.5
2018-11-26T04:15:56.437Z,20.4
2018-11-26T04:20:58.637Z,18.5
2018-11-26T04:26:00.948Z,13.9
2018-11-26T04:31:03.410Z,16.5
2018-11-26T04:36:05.549Z,16.1
2018-11-26T04:41:07.833Z,18.5
2018-11-26T04:46:10.166Z,20.700001
2018-11-26T04:51:12.408Z,19.9
2018-11-26T04:56:14.786Z,13.8
2018-11-26T05:01:17.089Z,21.799999
2018-11-26T05:06:21.238Z,16.9
2018-11-26T05:11:21.702Z,17.9
2018-11-26T05:16:23.899Z,19.200001
2018-11-26T05:21:26.161Z,19.299999
2018-11-26T05:26:28.485Z,13.7
2018-11-26T05:31:30.744Z,17.6
2018-11-26T05:36:33.194Z,21.799999
2018-11-26T05:41:35.331Z,18.5
2018-11-26T05:46:37.682Z,20.700001
2018-11-26T05:51:40.001Z,26.1
2018-11-26T05:56:42.212Z,20.1
2018-11-26T06:01:44.718Z,26.4
2018-11-26T06:06:46.933Z,18.299999
2018-11-26T06:11:49.208Z,22.299999
2018-11-26T06:16:53.733Z,21.299999
2018-11-26T06:21:53.779Z,20
2018-11-26T06:26:56.156Z,25.6
2018-11-26T06:31:58.367Z,20.700001
2018-11-26T06:37:00.730Z,17
2018-11-26T06:42:04.072Z,23.5
2018-11-26T06:47:05.197Z,22.200001
2018-11-26T06:52:07.631Z,19
2018-11-26T06:57:09.927Z,22.9
2018-11-26T07:02:12.088Z,21.299999
2018-11-26T07:07:14.372Z,26
2018-11-26T07:12:16.640Z,23.9
2018-11-26T07:17:19.020Z,23.6
2018-11-26T07:22:21.269Z,27.200001
2018-11-26T07:27:23.624Z,25.9
2018-11-26T07:32:25.839Z,27.1
2018-11-26T07:37:28.133Z,23
2018-11-26T07:42:30.443Z,20.9
2018-11-26T07:47:32.742Z,28.299999
2018-11-26T07:52:34.941Z,24.4
2018-11-26T07:57:37.287Z,19
2018-11-26T08:02:39.554Z,26.6
2018-11-26T08:07:41.840Z,23.9
2018-11-26T08:12:46.036Z,23
2018-11-26T08:17:47.607Z,21.700001
2018-11-26T08:22:48.803Z,23.799999
2018-11-26T08:27:51.068Z,25.1
2018-11-26T08:32:53.479Z,21.700001
2018-11-26T08:37:55.618Z,25.299999
2018-11-26T08:42:57.985Z,22.5
2018-11-26T08:53:02.530Z,22.700001
2018-11-26T08:58:04.915Z,21.4
2018-11-26T09:03:07.218Z,28.200001
2018-11-26T09:08:09.484Z,28
2018-11-26T09:13:11.718Z,30.5
2018-11-26T09:18:14.112Z,30.4
2018-11-26T09:23:16.342Z,32.900002
2018-11-26T09:28:18.659Z,31
2018-11-26T09:33:20.913Z,31.1
2018-11-26T09:38:23.250Z,31.5
2018-11-26T09:43:25.414Z,26.9
2018-11-26T09:48:27.840Z,31.700001
2018-11-26T09:53:31.543Z,34.599998
2018-11-26T09:58:33.530Z,34.700001
2018-11-26T10:03:34.624Z,34.900002
2018-11-26T10:08:37.036Z,34.5
2018-11-26T10:13:39.349Z,34.700001
2018-11-26T10:18:41.667Z,36
2018-11-26T10:23:43.833Z,29.9
2018-11-26T10:28:46.088Z,39.099998
2018-11-26T10:33:48.509Z,32.5
2018-11-26T10:38:50.880Z,33.900002
2018-11-26T10:43:53.032Z,26.200001
2018-11-26T10:48:55.484Z,31.6
2018-11-26T10:53:57.701Z,28.700001
2018-11-26T10:58:59.920Z,28.1
2018-11-26T11:04:02.251Z,29.5
2018-11-26T11:09:04.491Z,24.6
2018-11-26T11:14:06.862Z,30.200001
2018-11-26T11:19:08.989Z,22.200001
2018-11-26T11:24:11.350Z,30.1
2018-11-26T11:29:13.595Z,29.799999
2018-11-26T11:34:16.081Z,34.200001
2018-11-26T11:39:18.339Z,24.1
2018-11-26T11:44:20.545Z,32.900002
2018-11-26T11:49:22.894Z,29.5
2018-11-26T11:54:25.105Z,30.299999
2018-11-26T11:59:27.478Z,34.200001
2018-11-26T12:04:29.770Z,31.9
2018-11-26T12:09:32.048Z,27.799999
2018-11-26T12:14:34.311Z,29.200001
2018-11-26T12:19:36.672Z,25.6
2018-11-26T12:24:38.993Z,27.799999
2018-11-26T12:29:41.215Z,23
2018-11-26T12:34:43.442Z,27.299999
2018-11-26T12:39:45.932Z,29.5
2018-11-26T12:44:48.055Z,26.299999
2018-11-26T12:49:50.362Z,32.200001
2018-11-26T12:54:52.647Z,28.9
2018-11-26T12:59:54.989Z,32.200001
2018-11-26T13:04:57.259Z,32.599998
2018-11-26T13:09:59.684Z,27.4
2018-11-26T13:15:01.953Z,31.200001
2018-11-26T13:20:05.912Z,29.5
2018-11-26T13:25:06.427Z,33.799999
2018-11-26T13:30:08.798Z,23.9
2018-11-26T13:35:11.012Z,28.5
2018-11-26T13:40:13.231Z,28.4
2018-11-26T13:45:15.598Z,28.700001
2018-11-26T13:50:18.066Z,32.5
2018-11-26T13:55:20.178Z,28.200001
2018-11-26T14:00:22.514Z,26.1
2018-11-26T14:05:25.906Z,29.9
2018-11-26T14:10:27.032Z,26.9
2018-11-26T14:15:29.489Z,27.200001
2018-11-26T14:20:31.715Z,30.4
2018-11-26T14:25:33.928Z,28.299999
2018-11-26T14:30:36.229Z,27.200001
2018-11-26T14:35:38.566Z,31.200001
2018-11-26T14:40:40.775Z,22.799999
2018-11-26T14:45:44.969Z,29.5
2018-11-26T14:50:45.493Z,24.1
2018-11-26T15:00:49.944Z,28.9
2018-11-26T15:05:52.300Z,31.299999
2018-11-26T15:10:54.676Z,25.4
2018-11-26T15:15:56.841Z,27.5
2018-11-26T15:20:59.308Z,27.9
2018-11-26T15:26:01.411Z,29.9
2018-11-26T15:31:03.720Z,24.4
2018-11-26T15:36:06.008Z,39.299999
2018-11-26T15:41:08.292Z,27.299999
2018-11-26T15:46:10.621Z,31.4
2018-11-26T15:51:12.926Z,23.799999
2018-11-26T15:56:15.357Z,28.299999
2018-11-26T16:01:17.489Z,26.700001
2018-11-26T16:06:19.846Z,27.299999
2018-11-26T16:11:22.246Z,27.700001
2018-11-26T16:16:24.434Z,33.200001
2018-11-26T16:21:26.725Z,30.1
2018-11-26T16:26:28.933Z,37.099998
2018-11-26T16:31:31.426Z,28.200001
2018-11-26T16:36:33.540Z,24
2018-11-26T16:41:35.907Z,30.9
2018-11-26T16:46:38.231Z,27.700001
2018-11-26T16:51:40.555Z,30.4
2018-11-26T16:56:42.735Z,24.9
2018-11-26T17:01:45.174Z,29.4
2018-11-26T17:06:47.369Z,25.1
2018-11-26T17:11:49.572Z,36.700001
2018-11-26T17:16:51.996Z,22.4
2018-11-26T17:21:54.236Z,32.299999
2018-11-26T17:26:56.598Z,29.299999
2018-11-26T17:31:58.834Z,35.200001
2018-11-26T17:37:01.028Z,29.1
2018-11-26T17:42:03.400Z,33.099998
2018-11-26T17:47:05.797Z,25.799999
2018-11-26T18:12:23.123Z,32.900002
2018-11-26T18:17:24.019Z,30.5
2018-11-26T18:22:26.329Z,30.799999
2018-11-26T18:27:28.557Z,27.9
2018-11-26T18:32:30.979Z,30.700001
2018-11-26T18:37:33.191Z,30.200001
2018-11-26T18:42:35.477Z,26.5
2018-11-26T18:47:37.677Z,33.799999
2018-11-26T18:52:41.553Z,30.799999
2018-11-26T18:57:42.352Z,26.4
2018-11-26T19:02:44.683Z,30.1
2018-11-26T19:07:46.883Z,36.599998
2018-11-26T19:12:49.173Z,33.900002
2018-11-26T19:17:51.548Z,31.200001
2018-11-26T19:22:53.777Z,29.799999
2018-11-26T19:27:57.951Z,27.5
2018-11-26T19:32:58.373Z,33.099998
2018-11-26T19:38:00.755Z,30.299999
2018-11-26T19:43:03.074Z,36.700001
2018-11-26T19:48:05.337Z,27.5
2018-11-26T19:53:07.612Z,27.700001
2018-11-26T19:58:09.886Z,29.6
2018-11-26T20:03:12.299Z,32.200001
2018-11-26T20:08:14.485Z,27.6
2018-11-26T20:13:16.737Z,27.4
2018-11-26T20:18:19.155Z,31.9
2018-11-26T20:23:22.383Z,33.700001
2018-11-26T20:28:23.647Z,25.5
2018-11-26T20:33:26.093Z,26.4
2018-11-26T20:38:28.247Z,30.5
2018-11-26T20:43:30.638Z,27.200001
2018-11-26T20:48:32.821Z,29.4
2018-11-26T20:53:35.118Z,25.299999
2018-11-26T20:58:37.452Z,26.799999
2018-11-26T21:03:39.626Z,29.6
2018-11-26T21:08:41.968Z,28.799999
2018-11-26T21:13:44.344Z,33.099998
2018-11-26T21:18:46.644Z,25.700001
2018-11-26T21:23:48.908Z,24.799999
2018-11-26T21:28:51.186Z,23.799999
2018-11-26T21:33:53.452Z,27.299999
2018-11-26T21:38:55.780Z,29.9
2018-11-26T21:43:58.079Z,21.4
2018-11-26T21:49:00.364Z,24.4
2018-11-26T21:54:03.884Z,22.9
2018-11-26T21:59:04.945Z,28.700001
2018-11-26T22:04:07.248Z,27.299999
2018-11-26T22:09:09.542Z,28.4
2018-11-26T22:14:12.001Z,21.5
2018-11-26T22:19:14.091Z,22.5
2018-11-26T22:24:16.473Z,24.700001
2018-11-26T22:29:18.667Z,23.700001
2018-11-26T22:34:20.958Z,24.9
2018-11-26T22:39:23.230Z,31.299999
2018-11-26T22:44:27.381Z,29.200001
2018-11-26T22:49:27.869Z,28.6
2018-11-26T22:54:30.148Z,30
2018-11-26T22:59:32.423Z,24.1
2018-11-26T23:04:34.883Z,26.299999
2018-11-26T23:09:37.123Z,29.299999
2018-11-26T23:14:39.339Z,30.6
2018-11-26T23:19:41.574Z,33.700001
2018-11-26T23:24:43.990Z,30.1
2018-11-26T23:29:47.313Z,27.9
2018-11-26T23:34:48.532Z,27
2018-11-26T23:39:52.281Z,23.1
2018-11-26T23:44:53.245Z,22.5
2018-11-26T23:49:55.672Z,32.900002
2018-11-26T23:54:57.784Z,20.799999
2018-11-26T23:59:59.989Z,22.9
